Classifiche di sempre
Migliori tempi personali validi di team tra tutti gli eventi e le stagioni. Ogni team compare una sola volta per divisione.
Cerca per nome e apri la pagina in cui è classificato questo record di divisione.
134,451 team in classifica
| Pos. | Pos. AG | Team | Nazionalità | Categoria età | TempoMiglior tempo | Distacco |
|---|---|---|---|---|---|---|
| 133726 | #20412 | Carlos Alexander Valencia Tapia & Karla Joselyne Valencia TapiaMEX · X 25-29 · AG #20412 | MEX | X 25-29 | 2:22:16 | +93:03 |
| 133727 | #18071 | Sheetal Sumbet & Pradeep ArrojuIND · X 40-44 · AG #18071 | IND | X 40-44 | 2:22:16 | +93:03 |
| 133728 | #20413 | Dylan Chan & Kim VuongUSA · X 25-29 · AG #20413 | USA | X 25-29 | 2:22:17 | +93:04 |
| 133729 | #46623 | Mandakhnaran Enkhsaikhan & Batoyun SimsonMGL · X 30-34 · AG #46623 | MGL | X 30-34 | 2:22:18 | +93:05 |
| 133730 | #46624 | Jimmy Manuele & Kayla ManueleUSA · X 30-34 · AG #46624 | USA | X 30-34 | 2:22:22 | +93:09 |
| 133731 | #18072 | Andreas Subekti & Sonya Nuala LatifINA · X 40-44 · AG #18072 | INA | X 40-44 | 2:22:23 | +93:10 |
| 133732 | #20414 | Jashandeep Singh & Tanisha RayIND · X 25-29 · AG #20414 | IND | X 25-29 | 2:22:24 | +93:11 |
| 133733 | #16719 | Bhavesh Thakkar & Sejal ThakkarAUS · X 35-39 · AG #16719 | AUS | X 35-39 | 2:22:27 | +93:14 |
| 133734 | #46625 | Evelin Lopez & Felioe LopezSWE · X 30-34 · AG #46625 | SWE | X 30-34 | 2:22:28 | +93:15 |
| 133735 | #20415 | Karim Rouijel & Myriam RouijelFRA · X 25-29 · AG #20415 | FRA | X 25-29 | 2:22:28 | +93:15 |
| 133736 | #46626 | Lindley Mitchell & Justin MitchellUSA · X 30-34 · AG #46626 | USA | X 30-34 | 2:22:28 | +93:15 |
| 133737 | #16720 | Aadishesh Kshetri & Manisha KatowalIND · X 35-39 · AG #16720 | IND | X 35-39 | 2:22:28 | +93:15 |
| 133738 | #9131 | NICOLAS ALVAREZ & Mariana GonzalezMEX · X 16-24 · AG #9131 | MEX | X 16-24 | 2:22:29 | +93:16 |
| 133739 | #9132 | 继航 刘 & 佳琦 吕CHN · X 16-24 · AG #9132 | CHN | X 16-24 | 2:22:30 | +93:17 |
| 133740 | #4568 | Sergio Hernandez Ruiz & Claudia Alicia Palacios RomeroMEX · X 45-49 · AG #4568 | MEX | X 45-49 | 2:22:32 | +93:19 |
| 133741 | #3184 | Vandana Teotia & Krish IyerIND · X 50-54 · AG #3184 | IND | X 50-54 | 2:22:32 | +93:19 |
| 133742 | #20416 | Trey Guo & Jenny ShiX 25-29 · AG #20416 | -- | X 25-29 | 2:22:33 | +93:20 |
| 133743 | #3185 | Kimberly Ochoa & Josue OchoaUSA · X 50-54 · AG #3185 | USA | X 50-54 | 2:22:34 | +93:21 |
| 133744 | #20417 | 永奕 杨 & 嘉仪 段CHN · X 25-29 · AG #20417 | CHN | X 25-29 | 2:22:34 | +93:21 |
| 133745 | #46627 | Dennise Salinas & Guillermo HernándezUSA · X 30-34 · AG #46627 | USA | X 30-34 | 2:22:39 | +93:26 |
| 133746 | #4569 | Raakesh Tailor & Naina TailorGBR · X 45-49 · AG #4569 | GBR | X 45-49 | 2:22:40 | +93:27 |
| 133747 | #46628 | Qiongfang Zhang & Yanghe SongCHN · X 30-34 · AG #46628 | CHN | X 30-34 | 2:22:40 | +93:27 |
| 133748 | #3186 | Avi Sequeira & Bec CodyAUS · X 50-54 · AG #3186 | AUS | X 50-54 | 2:22:40 | +93:27 |
| 133749 | #20418 | Brendan Peter Fernandes & Rhea Mable DavidIND · X 25-29 · AG #20418 | IND | X 25-29 | 2:22:41 | +93:28 |
| 133750 | -- | 竺君 陳 & 昇鴻 李TPE · X XU29 | TPE | X XU29 | 2:22:43 | +93:30 |
Pagina 5,350 di 5,379